createdAt,value
2023-03-20T00:01:10.029Z,95011
2023-03-20T00:04:35.293Z,95003
2023-03-20T00:08:00.434Z,95010
2023-03-20T00:11:25.649Z,95005
2023-03-20T00:14:50.852Z,95007
2023-03-20T00:18:16.085Z,95006
2023-03-20T00:21:41.295Z,94999
2023-03-20T00:25:06.503Z,94998
2023-03-20T00:28:31.699Z,94995
2023-03-20T00:31:57.036Z,94995
2023-03-20T00:35:22.084Z,94997
2023-03-20T00:38:47.285Z,94995
2023-03-20T00:42:12.492Z,94998
2023-03-20T00:45:37.962Z,95000
2023-03-20T00:49:02.913Z,95001
2023-03-20T00:52:28.099Z,95000
2023-03-20T00:55:53.283Z,94997
2023-03-20T00:59:18.500Z,95002
2023-03-20T01:02:43.704Z,94993
2023-03-20T01:06:08.942Z,94987
2023-03-20T01:09:34.105Z,94992
2023-03-20T01:12:59.353Z,94991
2023-03-20T01:16:24.602Z,94992
2023-03-20T01:19:49.766Z,94989
2023-03-20T01:23:14.995Z,94984
2023-03-20T01:26:40.172Z,94987
2023-03-20T01:30:05.355Z,94989
2023-03-20T01:33:30.578Z,94996
2023-03-20T01:36:55.786Z,94999
2023-03-20T01:40:20.987Z,95002
2023-03-20T01:43:46.194Z,95004
2023-03-20T01:47:11.370Z,95002
2023-03-20T01:50:36.556Z,95009
2023-03-20T01:54:01.764Z,95010
2023-03-20T01:57:27.009Z,95007
2023-03-20T02:00:52.271Z,95015
2023-03-20T02:04:17.401Z,95010
2023-03-20T02:07:42.639Z,95010
2023-03-20T02:11:07.853Z,95012
2023-03-20T02:14:33.068Z,95010
2023-03-20T02:17:58.251Z,95006
2023-03-20T02:21:23.457Z,95011
2023-03-20T02:24:48.652Z,95009
2023-03-20T02:28:13.848Z,95007
2023-03-20T02:31:39.088Z,95006
2023-03-20T02:35:04.298Z,95007
2023-03-20T02:38:29.495Z,95011
2023-03-20T02:41:54.682Z,95017
2023-03-20T02:45:19.873Z,95022
2023-03-20T02:48:45.114Z,95029
2023-03-20T02:52:10.303Z,95026
2023-03-20T02:55:35.635Z,95023
2023-03-20T02:59:00.710Z,95021
2023-03-20T03:02:25.956Z,95024
2023-03-20T03:05:51.150Z,95025
2023-03-20T03:09:17.784Z,95026
2023-03-20T03:12:41.537Z,95026
2023-03-20T03:16:06.759Z,95025
2023-03-20T03:19:31.939Z,95018
2023-03-20T03:22:57.177Z,95021
2023-03-20T03:26:22.367Z,95017
2023-03-20T03:29:47.561Z,95019
2023-03-20T03:33:12.860Z,95015
2023-03-20T03:36:37.992Z,95013
2023-03-20T03:40:03.251Z,95019
2023-03-20T03:43:28.444Z,95019
2023-03-20T03:46:53.785Z,95022
2023-03-20T03:50:18.864Z,95018
2023-03-20T03:53:44.076Z,95019
2023-03-20T03:57:09.285Z,95018
2023-03-20T04:00:34.467Z,95024
2023-03-20T04:03:59.678Z,95019
2023-03-20T04:07:24.867Z,95021
2023-03-20T04:10:50.059Z,95019
2023-03-20T04:14:15.289Z,95018
2023-03-20T04:17:40.485Z,95026
2023-03-20T04:21:05.731Z,95033
2023-03-20T04:24:30.979Z,95037
2023-03-20T04:27:56.240Z,95037
2023-03-20T04:31:21.597Z,95040
2023-03-20T04:34:46.840Z,95043
2023-03-20T04:38:12.101Z,95043
2023-03-20T04:41:37.321Z,95044
2023-03-20T04:45:02.532Z,95046
2023-03-20T04:48:28.285Z,95054
2023-03-20T04:51:53.468Z,95058
2023-03-20T04:55:18.685Z,95059
2023-03-20T04:58:44.597Z,95060
2023-03-20T05:02:09.850Z,95058
2023-03-20T05:05:35.246Z,95062
2023-03-20T05:09:00.310Z,95059
2023-03-20T05:12:25.525Z,95057
2023-03-20T05:15:50.739Z,95061
2023-03-20T05:19:15.947Z,95060
2023-03-20T05:22:41.194Z,95068
2023-03-20T05:26:06.360Z,95065
2023-03-20T05:29:31.562Z,95064
2023-03-20T05:32:56.885Z,95065
2023-03-20T05:36:22.050Z,95071
2023-03-20T05:39:47.241Z,95068
2023-03-20T05:43:12.423Z,95067
2023-03-20T05:46:37.726Z,95067
2023-03-20T05:50:02.850Z,95069
2023-03-20T05:53:28.094Z,95071
2023-03-20T05:56:53.406Z,95076
2023-03-20T06:00:18.539Z,95074
2023-03-20T06:03:43.810Z,95078
2023-03-20T06:07:09.029Z,95081
2023-03-20T06:10:34.290Z,95081
2023-03-20T06:13:59.604Z,95082
2023-03-20T06:17:24.828Z,95086
2023-03-20T06:20:50.082Z,95085
2023-03-20T06:24:15.357Z,95077
2023-03-20T06:27:40.674Z,95072
2023-03-20T06:31:05.930Z,95083
2023-03-20T06:34:31.055Z,95079
2023-03-20T06:37:56.231Z,95086
2023-03-20T06:41:33.579Z,95083
2023-03-20T06:44:46.925Z,95083
2023-03-20T06:48:12.156Z,95087
2023-03-20T06:51:37.340Z,95089
2023-03-20T06:55:02.611Z,95090
2023-03-20T06:58:27.761Z,95086
2023-03-20T07:01:53.292Z,95093
2023-03-20T07:05:18.524Z,95087
2023-03-20T07:08:43.616Z,95087
2023-03-20T07:12:08.874Z,95091
2023-03-20T07:15:34.433Z,95088
2023-03-20T07:18:59.329Z,95086
2023-03-20T07:22:24.654Z,95099
2023-03-20T07:25:49.872Z,95102
2023-03-20T07:29:15.089Z,95104
2023-03-20T07:32:40.325Z,95100
2023-03-20T07:36:05.517Z,95099
2023-03-20T07:39:30.745Z,95100
2023-03-20T07:42:55.942Z,95103
2023-03-20T07:46:21.187Z,95108
2023-03-20T07:49:46.426Z,95108
2023-03-20T07:53:11.597Z,95105
2023-03-20T07:56:36.818Z,95111
2023-03-20T08:00:01.993Z,95115
2023-03-20T08:03:27.364Z,95107
2023-03-20T08:06:52.523Z,95110
2023-03-20T08:10:17.643Z,95110
2023-03-20T08:13:42.886Z,95105
2023-03-20T08:17:14.716Z,95114
2023-03-20T08:20:33.278Z,95106
2023-03-20T08:23:58.490Z,95112
2023-03-20T08:27:23.695Z,95101
2023-03-20T08:30:49.019Z,95111
2023-03-20T08:34:14.111Z,95105
2023-03-20T08:37:39.351Z,95106
2023-03-20T08:41:04.562Z,95109
2023-03-20T08:44:29.800Z,95111
2023-03-20T08:47:55.105Z,95114
2023-03-20T08:51:20.249Z,95119
2023-03-20T08:54:45.464Z,95126
2023-03-20T08:58:10.699Z,95136
2023-03-20T09:01:48.596Z,95137
2023-03-20T09:05:01.162Z,95140
2023-03-20T09:08:26.361Z,95136
2023-03-20T09:11:52.534Z,95135
2023-03-20T09:15:16.814Z,95132
2023-03-20T09:18:42.037Z,95140
2023-03-20T09:22:07.289Z,95143
2023-03-20T09:25:32.460Z,95140
2023-03-20T09:28:57.675Z,95147
2023-03-20T09:32:22.936Z,95146
2023-03-20T09:35:48.160Z,95151
2023-03-20T09:39:13.440Z,95152
2023-03-20T09:42:38.665Z,95154
2023-03-20T09:46:03.874Z,95159
2023-03-20T09:49:29.107Z,95162
2023-03-20T09:52:54.360Z,95161
2023-03-20T09:56:19.645Z,95162
2023-03-20T09:59:44.813Z,95160
2023-03-20T10:03:10.070Z,95159
2023-03-20T10:06:35.360Z,95154
2023-03-20T10:10:00.562Z,95154
2023-03-20T10:13:25.858Z,95163
2023-03-20T10:16:51.076Z,95167
2023-03-20T10:20:16.302Z,95172
2023-03-20T10:23:41.565Z,95176
2023-03-20T10:27:06.758Z,95176
2023-03-20T10:30:32.004Z,95181
2023-03-20T10:33:57.226Z,95191
2023-03-20T10:37:22.484Z,95186
2023-03-20T10:40:47.718Z,95184
2023-03-20T10:44:12.922Z,95181
2023-03-20T10:47:38.231Z,95176
2023-03-20T10:51:03.326Z,95173
2023-03-20T10:54:28.697Z,95160
2023-03-20T10:57:53.976Z,95163
2023-03-20T11:01:19.362Z,95161
2023-03-20T11:04:44.556Z,95152
2023-03-20T11:08:09.736Z,95152
2023-03-20T11:11:34.968Z,95151
2023-03-20T11:15:00.145Z,95156
2023-03-20T11:18:25.337Z,95154
2023-03-20T11:21:50.616Z,95156
2023-03-20T11:25:15.851Z,95157
2023-03-20T11:28:41.093Z,95152
2023-03-20T11:32:06.332Z,95154
2023-03-20T11:35:31.499Z,95151
2023-03-20T11:38:56.742Z,95151
2023-03-20T11:42:21.935Z,95150
2023-03-20T11:45:47.244Z,95152
2023-03-20T11:49:12.416Z,95154
2023-03-20T11:52:37.628Z,95145
2023-03-20T11:56:02.840Z,95141
2023-03-20T11:59:28.036Z,95143
2023-03-20T12:02:53.307Z,95137
2023-03-20T12:06:18.479Z,95141
2023-03-20T12:09:43.676Z,95134
2023-03-20T12:13:08.888Z,95133
2023-03-20T12:16:34.078Z,95127
2023-03-20T12:19:59.290Z,95129
2023-03-20T12:23:24.499Z,95127
2023-03-20T12:26:49.740Z,95116
2023-03-20T12:30:14.981Z,95111
2023-03-20T12:33:40.177Z,95103
2023-03-20T12:37:05.382Z,95106
2023-03-20T12:40:30.589Z,95112
2023-03-20T12:43:55.861Z,95109
2023-03-20T12:47:22.031Z,95110
2023-03-20T12:50:47.943Z,95108
2023-03-20T12:54:13.137Z,95105
2023-03-20T12:57:38.370Z,95106
2023-03-20T13:01:03.599Z,95098
2023-03-20T13:04:28.851Z,95095
2023-03-20T13:07:54.062Z,95089
2023-03-20T13:11:19.516Z,95091
2023-03-20T13:14:44.713Z,95090
2023-03-20T13:18:09.905Z,95082
2023-03-20T13:21:37.977Z,95084
2023-03-20T13:25:00.376Z,95080
2023-03-20T13:28:25.625Z,95078
2023-03-20T13:31:50.890Z,95082
2023-03-20T13:35:16.048Z,95080
2023-03-20T13:38:41.383Z,95079
2023-03-20T13:42:06.590Z,95077
2023-03-20T13:45:32.298Z,95077
2023-03-20T13:48:57.093Z,95066
2023-03-20T13:52:22.312Z,95067
2023-03-20T13:55:47.530Z,95058
2023-03-20T13:59:12.728Z,95057
2023-03-20T14:02:37.952Z,95058
2023-03-20T14:06:03.140Z,95053
2023-03-20T14:09:28.369Z,95058
2023-03-20T14:12:53.653Z,95053
2023-03-20T14:16:18.832Z,95052
2023-03-20T14:19:44.051Z,95051
2023-03-20T14:23:09.282Z,95044
2023-03-20T14:26:34.492Z,95046
2023-03-20T14:29:59.759Z,95048
2023-03-20T14:33:25.039Z,95038
2023-03-20T14:36:50.198Z,95039
2023-03-20T14:40:15.423Z,95038
2023-03-20T14:43:40.644Z,95037
2023-03-20T14:47:05.893Z,95033
2023-03-20T14:50:31.108Z,95029
2023-03-20T14:53:56.312Z,95035
2023-03-20T14:57:21.574Z,95036
2023-03-20T15:00:46.813Z,95031
2023-03-20T15:04:12.054Z,95034
2023-03-20T15:41:13.742Z,95020
2023-03-20T15:44:38.917Z,95014
2023-03-20T15:48:04.192Z,95017
2023-03-20T15:51:29.439Z,95018
2023-03-20T15:54:54.648Z,95017
2023-03-20T15:58:20.692Z,95020
2023-03-20T16:01:45.955Z,95030
2023-03-20T16:05:11.185Z,95027
2023-03-20T16:08:36.406Z,95024
2023-03-20T16:12:01.716Z,95025
2023-03-20T16:15:26.927Z,95031
2023-03-20T16:18:52.164Z,95033
2023-03-20T16:22:17.390Z,95041
2023-03-20T16:25:42.577Z,95040
2023-03-20T16:29:07.780Z,95038
2023-03-20T16:32:33.050Z,95040
2023-03-20T16:35:58.247Z,95041
2023-03-20T16:39:23.456Z,95048
2023-03-20T16:42:48.652Z,95048
2023-03-20T16:46:13.883Z,95043
2023-03-20T16:49:39.126Z,95046
2023-03-20T16:53:04.337Z,95051
2023-03-20T16:56:29.505Z,95047
2023-03-20T16:59:54.757Z,95049
2023-03-20T17:03:19.971Z,95058
2023-03-20T17:06:45.185Z,95060
2023-03-20T17:10:10.377Z,95057
2023-03-20T17:13:35.570Z,95061
2023-03-20T17:17:00.804Z,95062
2023-03-20T17:20:26.606Z,95059
2023-03-20T17:23:51.847Z,95060
2023-03-20T17:27:17.017Z,95065
2023-03-20T17:30:42.209Z,95062
2023-03-20T17:34:07.428Z,95068
2023-03-20T17:37:33.366Z,95067
2023-03-20T17:40:58.593Z,95063
2023-03-20T17:44:23.842Z,95056
2023-03-20T17:47:49.104Z,95063
2023-03-20T17:51:14.308Z,95062
2023-03-20T17:54:39.823Z,95062
2023-03-20T17:58:05.080Z,95059
2023-03-20T18:01:32.533Z,95056
2023-03-20T18:04:55.500Z,95061
2023-03-20T18:08:20.665Z,95056
2023-03-20T18:11:45.888Z,95054
2023-03-20T18:15:11.112Z,95052
2023-03-20T18:18:36.345Z,95056
2023-03-20T18:22:01.575Z,95054
2023-03-20T18:25:27.166Z,95058
2023-03-20T18:28:52.396Z,95053
2023-03-20T18:32:17.810Z,95059
2023-03-20T18:35:43.072Z,95049
2023-03-20T18:39:08.223Z,95044
2023-03-20T18:42:33.490Z,95047
2023-03-20T18:45:58.879Z,95046
2023-03-20T18:49:24.152Z,95050
2023-03-20T18:52:49.337Z,95049
2023-03-20T18:56:14.620Z,95047
2023-03-20T18:59:39.950Z,95051
2023-03-20T19:03:05.249Z,95053
2023-03-20T19:06:30.616Z,95052
2023-03-20T19:09:55.878Z,95044
2023-03-20T19:13:21.282Z,95040
2023-03-20T19:16:46.586Z,95038
2023-03-20T19:20:11.865Z,95043
2023-03-20T19:23:37.127Z,95042
2023-03-20T19:27:02.346Z,95039
2023-03-20T19:30:27.591Z,95044
2023-03-20T19:33:52.867Z,95046
2023-03-20T19:37:18.098Z,95052
2023-03-20T19:40:43.534Z,95051
2023-03-20T19:44:08.643Z,95058
2023-03-20T19:47:33.946Z,95051
2023-03-20T19:51:00.114Z,95053
2023-03-20T19:54:24.371Z,95059
2023-03-20T19:57:49.733Z,95059
2023-03-20T20:01:15.673Z,95056
2023-03-20T20:04:40.304Z,95057
2023-03-20T20:08:29.958Z,95056
2023-03-20T20:11:30.806Z,95061
2023-03-20T20:14:56.127Z,95062
2023-03-20T20:18:21.326Z,95052
2023-03-20T20:25:11.839Z,95050
2023-03-20T20:28:37.105Z,95051
2023-03-20T20:32:02.409Z,95050
2023-03-20T20:35:47.629Z,95049
2023-03-20T20:38:53.176Z,95043
2023-03-20T20:42:18.254Z,95037
2023-03-20T20:45:43.540Z,95035
2023-03-20T20:49:18.615Z,95035
2023-03-20T20:52:34.036Z,95037
2023-03-20T20:55:59.246Z,95040
2023-03-20T20:59:24.443Z,95041
2023-03-20T21:02:49.722Z,95038
2023-03-20T21:06:15.309Z,95038
2023-03-20T21:09:40.163Z,95034
2023-03-20T21:13:05.404Z,95034
2023-03-20T21:16:30.743Z,95042
2023-03-20T21:19:55.853Z,95046
2023-03-20T21:23:21.110Z,95041
2023-03-20T21:26:46.280Z,95038
2023-03-20T21:30:11.510Z,95039
2023-03-20T21:33:36.725Z,95035
2023-03-20T21:37:34.613Z,95041
2023-03-20T21:40:27.193Z,95045
2023-03-20T21:43:52.372Z,95051
2023-03-20T21:51:20.572Z,95046
2023-03-20T21:54:51.454Z,95044
2023-03-20T22:08:26.887Z,95046
2023-03-20T22:22:06.684Z,95045
2023-03-20T22:29:12.345Z,95046
2023-03-20T22:32:27.555Z,95050
2023-03-20T22:45:27.012Z,95040
2023-03-20T22:48:51.663Z,95038
2023-03-20T22:52:29.417Z,95038
2023-03-20T22:55:42.055Z,95039
2023-03-20T22:59:07.266Z,95041
2023-03-20T23:02:32.529Z,95041
2023-03-20T23:05:57.827Z,95044
2023-03-20T23:09:23.096Z,95040
2023-03-20T23:12:48.389Z,95050
2023-03-20T23:16:13.771Z,95046
2023-03-20T23:19:47.639Z,95042
2023-03-20T23:23:04.288Z,95039
2023-03-20T23:26:29.564Z,95035
2023-03-20T23:29:54.860Z,95036
2023-03-20T23:33:20.165Z,95036
2023-03-20T23:36:45.493Z,95043
2023-03-20T23:40:10.802Z,95040
2023-03-20T23:43:36.038Z,95046
2023-03-20T23:47:03.381Z,95046
2023-03-20T23:50:32.110Z,95047
2023-03-20T23:53:51.886Z,95047
2023-03-20T23:57:17.195Z,95042
